Time;durP1;ratioP1;P1;durP2;ratioP2;P2;SDS_P1;SDS_P2;PMS_P1;PMS_P2;Temp;Humidity;BMP_temperature;BMP_pressure;BME280_temperature;BME280_humidity;BME280_pressure;Samples;Min_cycle;Max_cycle;Signal;HPM_P1;HPM_P2
2021/06/29 00:01:46;;;;;;;;;;;20.80;99.90;;;;;;5086904;28;20480;-69
2021/06/29 00:04:13;;;;;;;;;;;20.70;99.90;;;;;;5081878;28;20012;-69
2021/06/29 00:06:40;;;;;;;;;;;20.70;99.90;;;;;;5082871;28;19924;-69
2021/06/29 00:09:06;;;;;;;;;;;20.70;99.90;;;;;;5084210;28;19959;-69
2021/06/29 00:11:36;;;;;;;;;;;20.70;99.90;;;;;;5087167;28;19924;-69
2021/06/29 00:14:03;;;;;;;;;;;20.70;99.90;;;;;;5085192;28;19977;-69
2021/06/29 00:16:29;;;;;;;;;;;20.70;99.90;;;;;;5082517;28;19983;-69
2021/06/29 00:18:56;;;;;;;;;;;20.70;99.90;;;;;;5085584;28;20005;-69
2021/06/29 00:21:23;;;;;;;;;;;20.60;99.90;;;;;;5086949;28;19928;-69
2021/06/29 00:23:49;;;;;;;;;;;20.60;99.90;;;;;;5089325;28;20038;-69
2021/06/29 00:26:16;;;;;;;;;;;20.60;99.90;;;;;;5085641;28;20008;-69
2021/06/29 00:28:43;;;;;;;;;;;20.60;99.90;;;;;;5088400;28;20416;-69
2021/06/29 00:31:09;;;;;;;;;;;20.60;99.90;;;;;;5087748;28;19993;-69
2021/06/29 00:33:37;;;;;;;;;;;20.50;99.90;;;;;;5085993;28;19925;-69
2021/06/29 00:36:04;;;;;;;;;;;20.50;99.90;;;;;;5085294;28;19938;-68
2021/06/29 00:38:31;;;;;;;;;;;20.50;99.90;;;;;;5079127;28;20291;-69
2021/06/29 00:40:58;;;;;;;;;;;20.50;99.90;;;;;;5092033;28;19924;-69
2021/06/29 00:43:25;;;;;;;;;;;20.50;99.90;;;;;;5087214;28;19924;-69
2021/06/29 00:45:51;;;;;;;;;;;20.50;99.90;;;;;;5088283;28;19970;-69
2021/06/29 00:48:18;;;;;;;;;;;20.50;99.90;;;;;;5087637;28;19954;-69
2021/06/29 00:50:45;;;;;;;;;;;20.50;99.90;;;;;;5089584;28;19968;-69
2021/06/29 00:53:12;;;;;;;;;;;20.40;99.90;;;;;;5088385;28;21836;-69
2021/06/29 00:55:38;;;;;;;;;;;20.40;99.90;;;;;;5087200;28;19982;-69
2021/06/29 00:58:07;;;;;;;;;;;20.40;99.90;;;;;;5088992;28;19956;-69
2021/06/29 01:00:33;;;;;;;;;;;20.40;99.90;;;;;;5091083;28;20483;-69
2021/06/29 01:03:00;;;;;;;;;;;20.40;99.90;;;;;;5087235;28;19964;-69
2021/06/29 01:05:26;;;;;;;;;;;20.40;99.90;;;;;;5091952;28;19982;-68
2021/06/29 01:11:16;;;;;;;;;;;20.40;99.90;;;;;;5086694;28;19924;-69
2021/06/29 01:13:43;;;;;;;;;;;20.40;99.90;;;;;;5089727;28;19968;-69
2021/06/29 01:16:11;;;;;;;;;;;20.40;99.90;;;;;;5089728;28;19925;-69
2021/06/29 01:18:38;;;;;;;;;;;20.40;99.90;;;;;;5089166;28;19924;-69
2021/06/29 01:21:06;;;;;;;;;;;20.40;99.90;;;;;;5088363;28;20007;-69
2021/06/29 01:23:35;;;;;;;;;;;20.30;99.90;;;;;;5090917;28;20077;-69
2021/06/29 01:26:12;;;;;;;;;;;20.30;99.90;;;;;;5089506;28;20335;-69
2021/06/29 01:29:35;;;;;;;;;;;20.30;99.90;;;;;;5089958;28;19928;-69
2021/06/29 01:31:31;;;;;;;;;;;20.30;99.90;;;;;;5085533;28;20421;-69
2021/06/29 01:33:58;;;;;;;;;;;20.20;99.90;;;;;;5090517;28;19943;-69
2021/06/29 01:36:27;;;;;;;;;;;20.20;99.90;;;;;;5088548;28;20321;-69
2021/06/29 01:38:54;;;;;;;;;;;20.20;99.90;;;;;;5084787;28;19924;-69
2021/06/29 01:41:24;;;;;;;;;;;20.20;99.90;;;;;;5089981;28;20632;-69
2021/06/29 01:46:22;;;;;;;;;;;20.10;99.90;;;;;;5091912;28;19924;-69
2021/06/29 01:48:50;;;;;;;;;;;20.10;99.90;;;;;;5089689;28;19951;-69
2021/06/29 01:51:17;;;;;;;;;;;20.10;99.90;;;;;;5091834;28;19924;-69
2021/06/29 01:53:46;;;;;;;;;;;20.10;99.90;;;;;;5088288;28;19978;-69
2021/06/29 01:56:16;;;;;;;;;;;20.10;99.90;;;;;;5086168;28;19970;-69
2021/06/29 01:59:07;;;;;;;;;;;20.10;99.90;;;;;;5086391;28;19963;-69
2021/06/29 02:01:33;;;;;;;;;;;20.10;99.90;;;;;;5087511;28;20028;-69
2021/06/29 02:04:00;;;;;;;;;;;20.10;99.90;;;;;;5089846;28;19958;-69
2021/06/29 02:06:27;;;;;;;;;;;20.10;99.90;;;;;;5086110;28;19923;-69
2021/06/29 02:08:54;;;;;;;;;;;20.10;99.90;;;;;;5088239;28;19966;-69
2021/06/29 02:11:20;;;;;;;;;;;20.10;99.90;;;;;;5088867;28;20425;-69
2021/06/29 02:13:47;;;;;;;;;;;20.10;99.90;;;;;;5089201;28;19924;-69
2021/06/29 02:16:14;;;;;;;;;;;20.10;99.90;;;;;;5088886;28;20434;-68
2021/06/29 02:18:40;;;;;;;;;;;20.10;99.90;;;;;;5085723;28;20023;-68
2021/06/29 02:21:08;;;;;;;;;;;20.10;99.90;;;;;;5088443;28;19928;-69
2021/06/29 02:23:34;;;;;;;;;;;20.10;99.90;;;;;;5087035;28;19931;-69
2021/06/29 02:26:01;;;;;;;;;;;20.10;99.90;;;;;;5088898;28;20941;-69
2021/06/29 02:28:28;;;;;;;;;;;20.10;99.90;;;;;;5089211;28;19977;-69
2021/06/29 02:30:54;;;;;;;;;;;20.10;99.90;;;;;;5088568;28;20117;-69
2021/06/29 02:33:21;;;;;;;;;;;20.10;99.90;;;;;;5086201;28;19924;-68
2021/06/29 02:35:48;;;;;;;;;;;20.10;99.90;;;;;;5087077;28;19924;-68
2021/06/29 02:38:14;;;;;;;;;;;20.10;99.90;;;;;;5080795;28;19970;-69
2021/06/29 02:40:41;;;;;;;;;;;20.10;99.90;;;;;;5084983;28;19969;-69
2021/06/29 02:43:08;;;;;;;;;;;20.10;99.90;;;;;;5083607;28;19928;-68
2021/06/29 02:45:34;;;;;;;;;;;20.10;99.90;;;;;;5089159;28;20007;-69
2021/06/29 02:48:01;;;;;;;;;;;20.10;99.90;;;;;;5088866;28;20307;-68
2021/06/29 02:50:28;;;;;;;;;;;20.10;99.90;;;;;;5088244;28;19971;-69
2021/06/29 02:52:54;;;;;;;;;;;20.10;99.90;;;;;;5087740;28;19924;-68
2021/06/29 02:55:21;;;;;;;;;;;20.10;99.90;;;;;;5078752;28;19928;-69
2021/06/29 02:57:54;;;;;;;;;;;20.10;99.90;;;;;;5078034;28;20007;-68
2021/06/29 03:00:21;;;;;;;;;;;20.10;99.90;;;;;;5083157;28;19925;-69
2021/06/29 03:06:09;;;;;;;;;;;20.10;99.90;;;;;;5081846;28;19930;-69
2021/06/29 03:08:36;;;;;;;;;;;20.10;99.90;;;;;;5085729;28;20321;-68
2021/06/29 03:11:03;;;;;;;;;;;20.10;99.90;;;;;;5085017;28;19932;-69
2021/06/29 03:13:32;;;;;;;;;;;20.10;99.90;;;;;;5085586;28;19931;-69
2021/06/29 03:15:59;;;;;;;;;;;20.10;99.90;;;;;;5086963;28;19985;-69
2021/06/29 03:18:25;;;;;;;;;;;20.10;99.90;;;;;;5082296;28;19924;-69
2021/06/29 03:20:52;;;;;;;;;;;20.10;99.90;;;;;;5089903;28;19928;-69
2021/06/29 03:23:19;;;;;;;;;;;20.20;99.90;;;;;;5083010;28;20329;-69
2021/06/29 03:25:49;;;;;;;;;;;20.20;99.90;;;;;;5087023;28;19924;-69
2021/06/29 03:28:16;;;;;;;;;;;20.20;99.90;;;;;;5083490;28;19924;-69
2021/06/29 03:30:43;;;;;;;;;;;20.20;99.90;;;;;;5084194;28;19967;-69
2021/06/29 03:33:10;;;;;;;;;;;20.10;99.90;;;;;;5081768;28;19935;-68
2021/06/29 03:35:37;;;;;;;;;;;20.20;99.90;;;;;;5083683;28;19947;-69
2021/06/29 03:38:04;;;;;;;;;;;20.20;99.90;;;;;;5080717;28;19924;-68
2021/06/29 03:40:31;;;;;;;;;;;20.10;99.90;;;;;;5105592;27;19924;-69
2021/06/29 03:42:58;;;;;;;;;;;20.10;99.90;;;;;;5086970;28;19931;-68
2021/06/29 03:45:26;;;;;;;;;;;20.10;99.90;;;;;;5087240;28;19928;-69
2021/06/29 03:47:53;;;;;;;;;;;20.10;99.90;;;;;;5086577;28;19924;-69
2021/06/29 03:50:20;;;;;;;;;;;20.10;99.90;;;;;;5089931;28;19928;-69
2021/06/29 03:52:47;;;;;;;;;;;20.20;99.90;;;;;;5086638;28;20286;-69
2021/06/29 03:55:14;;;;;;;;;;;20.10;99.90;;;;;;5085090;28;19928;-69
2021/06/29 03:57:41;;;;;;;;;;;20.10;99.90;;;;;;5081167;28;19925;-69
2021/06/29 04:00:09;;;;;;;;;;;20.10;99.90;;;;;;5087238;28;19971;-69
2021/06/29 04:02:37;;;;;;;;;;;20.00;99.90;;;;;;5073872;28;19928;-69
2021/06/29 04:05:05;;;;;;;;;;;20.10;99.90;;;;;;5094969;28;19987;-69
2021/06/29 04:07:32;;;;;;;;;;;20.00;99.90;;;;;;5083718;28;19931;-69
2021/06/29 04:10:00;;;;;;;;;;;20.10;99.90;;;;;;5083474;28;19935;-68
2021/06/29 04:12:27;;;;;;;;;;;20.00;99.90;;;;;;5083873;28;19932;-69
2021/06/29 04:14:54;;;;;;;;;;;20.10;99.90;;;;;;5081404;28;20026;-68
2021/06/29 04:17:22;;;;;;;;;;;20.00;99.90;;;;;;5073141;28;20023;-69
2021/06/29 04:19:49;;;;;;;;;;;20.10;99.90;;;;;;5080427;28;19947;-69
2021/06/29 04:22:16;;;;;;;;;;;20.10;99.90;;;;;;5079764;28;19928;-69
2021/06/29 04:24:43;;;;;;;;;;;20.10;99.90;;;;;;5074828;28;19924;-69
2021/06/29 04:27:10;;;;;;;;;;;20.10;99.90;;;;;;5076431;28;19934;-69
2021/06/29 04:29:37;;;;;;;;;;;20.10;99.90;;;;;;5082818;28;20014;-69
2021/06/29 04:32:04;;;;;;;;;;;20.10;99.90;;;;;;5077940;28;20038;-68
2021/06/29 04:34:32;;;;;;;;;;;20.10;99.90;;;;;;5083390;28;20461;-69
2021/06/29 04:37:01;;;;;;;;;;;20.10;99.90;;;;;;5080237;28;20383;-69
2021/06/29 04:39:28;;;;;;;;;;;20.10;99.90;;;;;;5074087;28;20015;-69
2021/06/29 04:41:55;;;;;;;;;;;20.10;99.90;;;;;;5075012;28;19924;-69
2021/06/29 04:44:22;;;;;;;;;;;20.10;99.90;;;;;;5098817;28;19935;-69
2021/06/29 04:46:50;;;;;;;;;;;20.10;99.90;;;;;;5071182;28;20291;-69
2021/06/29 04:49:20;;;;;;;;;;;20.10;99.90;;;;;;5078819;28;20036;-69
2021/06/29 04:51:47;;;;;;;;;;;20.00;99.90;;;;;;5079244;28;20397;-69
2021/06/29 04:54:14;;;;;;;;;;;20.00;99.90;;;;;;5078351;28;19931;-69
2021/06/29 04:56:42;;;;;;;;;;;20.00;99.90;;;;;;5073543;28;20647;-69
2021/06/29 04:59:09;;;;;;;;;;;20.00;99.90;;;;;;5082610;28;20389;-69
2021/06/29 05:01:36;;;;;;;;;;;20.00;99.90;;;;;;5077144;28;20268;-69
2021/06/29 05:04:02;;;;;;;;;;;20.00;99.90;;;;;;5080415;28;19931;-69
2021/06/29 05:06:29;;;;;;;;;;;20.00;99.90;;;;;;5086263;28;19924;-69
2021/06/29 05:08:56;;;;;;;;;;;20.00;99.90;;;;;;5082952;28;19928;-69
2021/06/29 05:11:57;;;;;;;;;;;20.00;99.90;;;;;;5078261;28;20428;-69
2021/06/29 05:14:23;;;;;;;;;;;19.90;99.90;;;;;;5075895;28;19932;-69
2021/06/29 05:16:50;;;;;;;;;;;19.90;99.90;;;;;;5076936;28;19960;-69
2021/06/29 05:19:17;;;;;;;;;;;19.90;99.90;;;;;;5077175;28;20422;-69
2021/06/29 05:21:43;;;;;;;;;;;20.00;99.90;;;;;;5084323;28;19990;-68
2021/06/29 05:24:10;;;;;;;;;;;19.90;99.90;;;;;;5108420;27;19963;-69
2021/06/29 05:26:37;;;;;;;;;;;19.90;99.90;;;;;;5070502;28;20381;-69
2021/06/29 05:29:05;;;;;;;;;;;19.90;99.90;;;;;;5070761;28;19984;-69
2021/06/29 05:31:32;;;;;;;;;;;19.90;99.90;;;;;;5072087;28;19990;-69
2021/06/29 05:33:59;;;;;;;;;;;19.90;99.90;;;;;;5074400;28;20031;-69
2021/06/29 05:36:26;;;;;;;;;;;19.90;99.90;;;;;;5116965;27;20354;-69
2021/06/29 05:38:52;;;;;;;;;;;19.90;99.90;;;;;;5077129;28;19924;-69
2021/06/29 05:41:19;;;;;;;;;;;19.80;99.90;;;;;;5082029;28;20017;-69
2021/06/29 05:43:46;;;;;;;;;;;19.80;99.90;;;;;;5078711;28;19931;-69
2021/06/29 05:46:13;;;;;;;;;;;19.80;99.90;;;;;;5098581;28;19971;-69
2021/06/29 05:48:40;;;;;;;;;;;19.80;99.90;;;;;;5071284;28;19935;-68
2021/06/29 05:51:07;;;;;;;;;;;19.80;99.90;;;;;;5068652;28;20018;-69
2021/06/29 05:53:34;;;;;;;;;;;19.80;99.90;;;;;;5067721;28;19968;-69
2021/06/29 05:56:01;;;;;;;;;;;19.80;99.90;;;;;;5067775;28;20383;-69
2021/06/29 05:58:28;;;;;;;;;;;19.80;99.90;;;;;;5066720;28;20025;-69
2021/06/29 06:00:54;;;;;;;;;;;19.80;99.90;;;;;;5067158;28;19932;-69
2021/06/29 06:03:21;;;;;;;;;;;19.80;99.90;;;;;;5066072;28;19964;-69
2021/06/29 06:05:47;;;;;;;;;;;19.90;99.90;;;;;;5068664;28;19924;-69
2021/06/29 06:08:14;;;;;;;;;;;19.90;99.90;;;;;;5065770;28;19998;-68
2021/06/29 06:10:41;;;;;;;;;;;19.90;99.90;;;;;;5061670;28;19982;-68
2021/06/29 06:13:08;;;;;;;;;;;19.90;99.90;;;;;;5096629;27;20383;-68
2021/06/29 06:15:34;;;;;;;;;;;19.90;99.90;;;;;;5066267;28;20037;-69
2021/06/29 06:18:05;;;;;;;;;;;19.90;99.90;;;;;;5066275;28;19968;-68
2021/06/29 06:20:33;;;;;;;;;;;19.90;99.90;;;;;;5066199;28;19976;-69
2021/06/29 06:23:00;;;;;;;;;;;19.90;99.90;;;;;;5066605;28;19934;-69
2021/06/29 06:25:26;;;;;;;;;;;19.90;99.90;;;;;;5066990;28;19972;-68
2021/06/29 06:27:53;;;;;;;;;;;19.90;99.90;;;;;;5065479;28;19979;-68
2021/06/29 06:30:20;;;;;;;;;;;19.90;99.90;;;;;;5066088;28;19966;-68
2021/06/29 06:32:47;;;;;;;;;;;19.90;99.90;;;;;;5066885;28;19924;-69
2021/06/29 06:35:13;;;;;;;;;;;19.90;99.90;;;;;;5066788;28;20024;-69
2021/06/29 06:37:40;;;;;;;;;;;19.90;99.90;;;;;;5066737;28;20359;-69
2021/06/29 06:40:32;;;;;;;;;;;19.90;99.90;;;;;;5067009;28;19974;-69
2021/06/29 06:42:59;;;;;;;;;;;19.90;99.90;;;;;;5060847;28;19928;-69
2021/06/29 06:45:25;;;;;;;;;;;20.00;99.90;;;;;;5067996;28;19974;-68
2021/06/29 06:47:53;;;;;;;;;;;20.00;99.90;;;;;;5067648;28;19931;-68
2021/06/29 06:50:20;;;;;;;;;;;20.00;99.90;;;;;;5069435;28;19956;-68
2021/06/29 06:52:47;;;;;;;;;;;20.00;99.90;;;;;;5062748;28;19978;-68
2021/06/29 06:55:14;;;;;;;;;;;20.10;99.90;;;;;;5066152;28;19951;-70
2021/06/29 06:57:43;;;;;;;;;;;20.10;99.90;;;;;;5062798;28;19964;-69
2021/06/29 07:00:10;;;;;;;;;;;20.20;99.90;;;;;;5064256;28;20043;-69
2021/06/29 07:02:37;;;;;;;;;;;20.20;99.90;;;;;;5062755;28;19932;-68
2021/06/29 07:05:05;;;;;;;;;;;20.30;99.90;;;;;;5067817;28;20054;-68
2021/06/29 07:07:31;;;;;;;;;;;20.30;99.90;;;;;;5064847;28;19971;-68
2021/06/29 07:09:58;;;;;;;;;;;20.30;99.90;;;;;;5062777;28;20358;-68
2021/06/29 07:12:25;;;;;;;;;;;20.30;99.90;;;;;;5063230;28;19928;-68
2021/06/29 07:14:51;;;;;;;;;;;20.30;99.90;;;;;;5062116;28;20060;-68
2021/06/29 07:17:18;;;;;;;;;;;20.20;99.90;;;;;;5063649;28;19963;-69
2021/06/29 07:19:45;;;;;;;;;;;20.20;99.90;;;;;;5062487;28;20050;-69
2021/06/29 07:22:11;;;;;;;;;;;20.20;99.90;;;;;;5064792;28;19928;-69
2021/06/29 07:24:39;;;;;;;;;;;20.20;99.90;;;;;;5067703;28;20058;-68
2021/06/29 07:27:07;;;;;;;;;;;20.20;99.90;;;;;;5063801;28;20004;-69
2021/06/29 07:29:34;;;;;;;;;;;20.20;99.90;;;;;;5063530;28;19960;-68
2021/06/29 07:32:01;;;;;;;;;;;20.10;99.90;;;;;;5062213;28;19932;-68
2021/06/29 07:34:27;;;;;;;;;;;20.10;99.90;;;;;;5070538;28;19968;-68
2021/06/29 07:36:55;;;;;;;;;;;20.10;99.90;;;;;;5079393;28;19956;-69
2021/06/29 07:39:22;;;;;;;;;;;20.10;99.90;;;;;;5063316;28;19972;-69
2021/06/29 07:41:49;;;;;;;;;;;20.20;99.90;;;;;;5063204;28;19928;-68
2021/06/29 07:44:16;;;;;;;;;;;20.10;99.90;;;;;;5063937;28;19986;-68
2021/06/29 07:46:42;;;;;;;;;;;20.20;99.90;;;;;;5061564;28;20021;-69
2021/06/29 07:49:09;;;;;;;;;;;20.20;99.90;;;;;;5063452;28;19928;-69
2021/06/29 07:51:36;;;;;;;;;;;20.20;99.90;;;;;;5061236;28;24201;-69
2021/06/29 07:54:02;;;;;;;;;;;20.20;99.90;;;;;;5070788;28;19959;-69
2021/06/29 07:56:29;;;;;;;;;;;20.20;99.90;;;;;;5078549;28;19970;-68
2021/06/29 07:58:57;;;;;;;;;;;20.20;99.90;;;;;;5060601;28;22378;-69
2021/06/29 08:01:24;;;;;;;;;;;20.20;99.90;;;;;;5063285;28;20013;-69
2021/06/29 08:03:51;;;;;;;;;;;20.20;99.90;;;;;;5064038;28;20338;-68
2021/06/29 08:06:19;;;;;;;;;;;20.20;99.90;;;;;;5063582;28;20988;-68
2021/06/29 08:08:45;;;;;;;;;;;20.20;99.90;;;;;;5060429;28;20009;-69
2021/06/29 08:11:12;;;;;;;;;;;20.20;99.90;;;;;;5063159;28;19928;-68
2021/06/29 08:13:39;;;;;;;;;;;20.20;99.90;;;;;;5063715;28;19928;-68
2021/06/29 08:16:07;;;;;;;;;;;20.20;99.90;;;;;;5065075;28;20071;-68
2021/06/29 08:18:35;;;;;;;;;;;20.20;99.90;;;;;;5063143;28;19924;-69
2021/06/29 08:21:02;;;;;;;;;;;20.20;99.90;;;;;;5062236;28;19979;-68
2021/06/29 08:23:29;;;;;;;;;;;20.20;99.90;;;;;;5062315;28;19925;-68
2021/06/29 08:25:56;;;;;;;;;;;20.10;99.90;;;;;;5068064;28;20667;-68
2021/06/29 08:28:23;;;;;;;;;;;20.10;99.90;;;;;;5065801;28;20326;-69
2021/06/29 08:30:51;;;;;;;;;;;20.10;99.90;;;;;;5064028;28;19924;-68
2021/06/29 08:33:21;;;;;;;;;;;20.10;99.90;;;;;;5062880;28;20515;-68
2021/06/29 08:35:49;;;;;;;;;;;20.20;99.90;;;;;;5066527;28;19929;-68
2021/06/29 08:38:17;;;;;;;;;;;20.20;99.90;;;;;;5063270;28;20283;-68
2021/06/29 08:40:44;;;;;;;;;;;20.20;99.90;;;;;;5062217;28;20434;-68
2021/06/29 08:43:12;;;;;;;;;;;20.20;99.90;;;;;;5061364;28;19964;-69
2021/06/29 08:45:39;;;;;;;;;;;20.20;99.90;;;;;;5058965;28;20360;-68
2021/06/29 08:48:06;;;;;;;;;;;20.20;99.90;;;;;;5061740;28;20028;-68
2021/06/29 08:50:33;;;;;;;;;;;20.20;99.90;;;;;;5067790;28;20029;-68
2021/06/29 08:53:01;;;;;;;;;;;20.20;99.90;;;;;;5066379;28;19928;-68
2021/06/29 08:55:31;;;;;;;;;;;20.20;99.90;;;;;;5065138;28;20005;-68
2021/06/29 08:57:58;;;;;;;;;;;20.20;99.90;;;;;;5094891;27;19985;-69
2021/06/29 09:00:25;;;;;;;;;;;20.20;99.90;;;;;;5063113;28;20001;-68
2021/06/29 09:02:52;;;;;;;;;;;20.20;99.90;;;;;;5064591;28;20397;-68
2021/06/29 09:05:20;;;;;;;;;;;20.30;99.90;;;;;;5065557;28;20006;-68
2021/06/29 09:07:49;;;;;;;;;;;20.30;99.90;;;;;;5065733;28;19960;-68
2021/06/29 09:10:16;;;;;;;;;;;20.30;99.90;;;;;;5079231;28;19964;-68
2021/06/29 09:12:49;;;;;;;;;;;20.30;99.90;;;;;;5096150;27;19971;-69
2021/06/29 09:15:22;;;;;;;;;;;20.30;99.90;;;;;;5068105;28;19931;-68
2021/06/29 09:17:49;;;;;;;;;;;20.30;99.90;;;;;;5071346;28;19971;-68
2021/06/29 09:20:25;;;;;;;;;;;20.40;99.90;;;;;;5067530;28;19993;-68
2021/06/29 09:22:53;;;;;;;;;;;20.40;99.90;;;;;;5066623;28;19964;-68
2021/06/29 09:25:29;;;;;;;;;;;20.40;99.90;;;;;;5067307;28;19968;-68
2021/06/29 09:27:57;;;;;;;;;;;20.40;99.90;;;;;;5067042;28;20005;-68
2021/06/29 09:30:42;;;;;;;;;;;20.50;99.90;;;;;;5068047;28;19924;-68
2021/06/29 09:33:11;;;;;;;;;;;20.50;99.90;;;;;;5069139;28;19970;-68
2021/06/29 09:35:39;;;;;;;;;;;20.50;99.90;;;;;;5068740;28;19986;-69
2021/06/29 09:38:07;;;;;;;;;;;20.50;99.90;;;;;;5066706;28;20034;-68
2021/06/29 09:40:34;;;;;;;;;;;20.60;99.90;;;;;;5068105;28;20015;-68
2021/06/29 09:43:06;;;;;;;;;;;20.70;99.90;;;;;;5065350;28;19933;-68
2021/06/29 09:45:34;;;;;;;;;;;20.70;99.90;;;;;;5076338;28;19967;-69
2021/06/29 09:48:02;;;;;;;;;;;20.70;99.90;;;;;;5066074;28;20017;-68
2021/06/29 09:50:35;;;;;;;;;;;20.70;99.90;;;;;;5068779;28;20408;-69
2021/06/29 09:53:16;;;;;;;;;;;20.80;99.90;;;;;;5063893;28;20010;-68
2021/06/29 09:55:47;;;;;;;;;;;20.80;99.90;;;;;;5065431;28;20615;-68
2021/06/29 09:58:14;;;;;;;;;;;20.80;99.90;;;;;;5065041;28;20033;-69
2021/06/29 10:00:47;;;;;;;;;;;20.80;99.90;;;;;;5069936;28;19924;-68
2021/06/29 10:03:23;;;;;;;;;;;20.80;99.90;;;;;;5063448;28;19934;-68
2021/06/29 10:05:52;;;;;;;;;;;20.80;99.90;;;;;;5069146;28;19990;-68
2021/06/29 10:08:38;;;;;;;;;;;20.80;99.90;;;;;;5067858;28;19936;-69
2021/06/29 10:11:16;;;;;;;;;;;20.80;99.90;;;;;;5067953;28;19970;-69
2021/06/29 10:13:44;;;;;;;;;;;20.90;99.90;;;;;;5097782;27;19979;-68
2021/06/29 10:16:11;;;;;;;;;;;21.00;99.90;;;;;;5066620;28;19982;-68
2021/06/29 10:21:24;;;;;;;;;;;21.00;99.90;;;;;;5065161;28;20251;-69
2021/06/29 10:23:52;;;;;;;;;;;21.10;99.90;;;;;;5099245;27;20364;-69
2021/06/29 10:26:19;;;;;;;;;;;21.10;99.90;;;;;;5066786;28;21172;-70
2021/06/29 10:28:47;;;;;;;;;;;21.10;99.90;;;;;;5066115;28;20344;-69
2021/06/29 10:31:18;;;;;;;;;;;21.20;99.90;;;;;;5066337;28;19979;-69
2021/06/29 10:33:46;;;;;;;;;;;21.20;99.90;;;;;;5066399;28;19932;-69
2021/06/29 10:36:17;;;;;;;;;;;21.20;99.90;;;;;;5065944;28;19998;-69
2021/06/29 10:38:44;;;;;;;;;;;21.20;99.90;;;;;;5063102;28;20372;-69
2021/06/29 10:41:12;;;;;;;;;;;21.30;99.90;;;;;;5064706;28;20031;-68
2021/06/29 10:43:41;;;;;;;;;;;21.30;99.90;;;;;;5062735;28;20437;-68
2021/06/29 10:46:31;;;;;;;;;;;21.40;99.90;;;;;;5066664;28;20287;-69
2021/06/29 10:49:17;;;;;;;;;;;21.50;99.90;;;;;;5063022;28;19925;-68
2021/06/29 10:51:44;;;;;;;;;;;21.50;99.90;;;;;;5064816;28;19928;-68
2021/06/29 10:54:37;;;;;;;;;;;21.60;99.90;;;;;;5100062;27;19931;-68
2021/06/29 10:57:07;;;;;;;;;;;21.60;99.90;;;;;;5048997;28;19964;-68
2021/06/29 10:59:35;;;;;;;;;;;21.60;99.90;;;;;;5069388;28;19974;-68
2021/06/29 11:02:01;;;;;;;;;;;21.60;99.90;;;;;;5064932;28;19983;-68
2021/06/29 11:04:46;;;;;;;;;;;21.60;99.90;;;;;;5102104;27;19928;-68
2021/06/29 11:07:25;;;;;;;;;;;21.60;99.90;;;;;;5068002;28;19976;-68
2021/06/29 11:10:01;;;;;;;;;;;21.60;99.90;;;;;;5067876;28;20655;-68
2021/06/29 11:12:29;;;;;;;;;;;21.50;99.90;;;;;;5062261;28;20379;-68
2021/06/29 11:14:58;;;;;;;;;;;21.50;99.90;;;;;;5067882;28;20375;-68
2021/06/29 11:17:43;;;;;;;;;;;21.40;99.90;;;;;;5064145;28;19924;-68
2021/06/29 11:20:13;;;;;;;;;;;21.40;99.90;;;;;;5069885;28;19978;-68
2021/06/29 11:22:54;;;;;;;;;;;21.40;99.90;;;;;;5066608;28;19975;-68
2021/06/29 11:25:30;;;;;;;;;;;21.30;99.90;;;;;;5067173;28;20391;-69
2021/06/29 11:28:14;;;;;;;;;;;21.30;99.90;;;;;;5064561;28;20007;-68
2021/06/29 11:31:01;;;;;;;;;;;21.40;99.90;;;;;;5066539;28;19924;-68
2021/06/29 11:33:28;;;;;;;;;;;21.40;99.90;;;;;;5069004;28;19928;-68
2021/06/29 11:35:55;;;;;;;;;;;21.40;99.90;;;;;;5068148;28;20445;-68
2021/06/29 11:38:34;;;;;;;;;;;21.30;99.90;;;;;;5065376;28;19936;-67
2021/06/29 11:41:19;;;;;;;;;;;21.40;99.90;;;;;;5062609;28;19995;-68
2021/06/29 11:43:46;;;;;;;;;;;21.40;99.90;;;;;;5064234;28;19982;-68
2021/06/29 11:46:32;;;;;;;;;;;21.40;99.90;;;;;;5064990;28;20039;-66
2021/06/29 11:49:25;;;;;;;;;;;21.40;99.90;;;;;;5064722;28;19964;-66
2021/06/29 11:51:52;;;;;;;;;;;21.40;99.90;;;;;;5063806;28;19974;-66
2021/06/29 11:54:29;;;;;;;;;;;21.40;99.90;;;;;;5063791;28;19978;-66
2021/06/29 11:56:57;;;;;;;;;;;21.50;99.90;;;;;;5062949;28;19972;-66
2021/06/29 11:59:25;;;;;;;;;;;21.60;99.90;;;;;;5064188;28;19929;-66
2021/06/29 12:01:58;;;;;;;;;;;21.60;99.90;;;;;;5062990;28;19980;-66
2021/06/29 12:04:25;;;;;;;;;;;21.60;99.90;;;;;;5065824;28;20387;-66
2021/06/29 12:07:03;;;;;;;;;;;21.60;99.90;;;;;;5064091;28;19972;-66
2021/06/29 12:09:34;;;;;;;;;;;21.60;99.90;;;;;;5065595;28;19924;-66
2021/06/29 12:12:20;;;;;;;;;;;21.60;99.90;;;;;;5063149;28;19932;-67
2021/06/29 12:14:47;;;;;;;;;;;21.60;99.90;;;;;;5062556;28;20283;-68
2021/06/29 12:17:13;;;;;;;;;;;21.60;99.90;;;;;;5065119;28;20023;-68
2021/06/29 12:19:40;;;;;;;;;;;21.60;99.90;;;;;;5064694;28;20016;-68
2021/06/29 12:22:07;;;;;;;;;;;21.60;99.90;;;;;;5063549;28;20023;-69
2021/06/29 12:24:34;;;;;;;;;;;21.60;99.90;;;;;;5067788;28;20019;-68
2021/06/29 12:27:02;;;;;;;;;;;21.60;99.90;;;;;;5070402;28;19990;-68
2021/06/29 12:29:29;;;;;;;;;;;21.60;99.90;;;;;;5067950;28;20362;-68
2021/06/29 12:31:57;;;;;;;;;;;21.50;99.90;;;;;;5070185;28;20287;-68
2021/06/29 12:34:24;;;;;;;;;;;21.50;99.90;;;;;;5068513;28;21017;-68
2021/06/29 12:36:51;;;;;;;;;;;21.50;99.90;;;;;;5068745;28;19985;-68
2021/06/29 12:39:17;;;;;;;;;;;21.40;99.90;;;;;;5067687;28;19958;-68
2021/06/29 12:41:44;;;;;;;;;;;21.40;99.90;;;;;;5067265;28;20301;-69
2021/06/29 12:44:13;;;;;;;;;;;21.40;99.90;;;;;;5067951;28;19971;-68
2021/06/29 12:46:41;;;;;;;;;;;21.30;99.90;;;;;;5068923;28;19975;-68
2021/06/29 12:49:20;;;;;;;;;;;21.30;99.90;;;;;;5070392;28;20953;-68
2021/06/29 12:51:48;;;;;;;;;;;21.30;99.90;;;;;;5070499;28;19977;-68
2021/06/29 12:54:16;;;;;;;;;;;21.30;99.90;;;;;;5082743;28;19928;-68
2021/06/29 12:56:50;;;;;;;;;;;21.30;99.90;;;;;;5067773;28;20050;-68
2021/06/29 12:59:22;;;;;;;;;;;21.30;99.90;;;;;;5071444;28;20015;-68
2021/06/29 13:01:54;;;;;;;;;;;21.40;99.90;;;;;;5069020;28;20089;-68
2021/06/29 13:04:24;;;;;;;;;;;21.40;99.90;;;;;;5072578;28;19932;-68
2021/06/29 13:07:04;;;;;;;;;;;21.40;99.90;;;;;;5077378;28;19974;-68
2021/06/29 13:09:32;;;;;;;;;;;21.40;99.90;;;;;;5066935;28;19968;-68
2021/06/29 13:12:00;;;;;;;;;;;21.40;99.90;;;;;;5067845;28;19924;-68
2021/06/29 13:14:28;;;;;;;;;;;21.40;99.90;;;;;;5067855;28;19928;-68
2021/06/29 13:17:00;;;;;;;;;;;21.40;99.90;;;;;;5069496;28;20020;-68
2021/06/29 13:19:27;;;;;;;;;;;21.50;99.90;;;;;;5069391;28;19924;-68
2021/06/29 13:21:55;;;;;;;;;;;21.50;99.90;;;;;;5068288;28;19959;-68
2021/06/29 13:24:21;;;;;;;;;;;21.50;99.90;;;;;;5068327;28;20073;-68
2021/06/29 13:26:51;;;;;;;;;;;21.50;99.90;;;;;;5068998;28;20112;-68
2021/06/29 13:29:21;;;;;;;;;;;21.50;99.90;;;;;;5069109;28;19956;-68
2021/06/29 13:31:48;;;;;;;;;;;21.60;99.90;;;;;;5068228;28;20312;-68
2021/06/29 13:34:17;;;;;;;;;;;21.60;99.90;;;;;;5066148;28;20261;-68
2021/06/29 13:36:44;;;;;;;;;;;21.60;99.90;;;;;;5066395;28;19928;-68
2021/06/29 13:39:10;;;;;;;;;;;21.60;99.90;;;;;;5068658;28;19966;-68
2021/06/29 13:41:38;;;;;;;;;;;21.50;99.90;;;;;;5066004;28;20742;-68
2021/06/29 13:44:12;;;;;;;;;;;21.40;99.90;;;;;;5068756;28;19924;-68
2021/06/29 13:46:39;;;;;;;;;;;21.40;99.90;;;;;;5072134;28;20057;-68
2021/06/29 13:49:16;;;;;;;;;;;21.40;99.90;;;;;;5079116;28;20410;-68
2021/06/29 13:51:43;;;;;;;;;;;21.40;99.90;;;;;;5065436;28;20006;-68
2021/06/29 13:54:23;;;;;;;;;;;21.40;99.90;;;;;;5068156;28;19928;-68
2021/06/29 13:56:50;;;;;;;;;;;21.40;99.90;;;;;;5066551;28;20038;-69
2021/06/29 13:59:27;;;;;;;;;;;21.30;99.90;;;;;;5069253;28;19936;-68
2021/06/29 14:02:08;;;;;;;;;;;21.30;99.90;;;;;;5066642;28;19928;-68
2021/06/29 14:04:48;;;;;;;;;;;21.30;99.90;;;;;;5069687;28;19924;-68
2021/06/29 14:07:15;;;;;;;;;;;21.30;99.90;;;;;;5070256;28;19924;-68
2021/06/29 14:09:41;;;;;;;;;;;21.30;99.90;;;;;;5067156;28;19959;-68
2021/06/29 14:12:18;;;;;;;;;;;21.30;99.90;;;;;;5078442;28;20020;-68
2021/06/29 14:14:45;;;;;;;;;;;21.20;99.90;;;;;;5066870;28;19960;-68
2021/06/29 14:17:12;;;;;;;;;;;21.20;99.90;;;;;;5067016;28;20356;-69
2021/06/29 14:19:38;;;;;;;;;;;21.10;99.90;;;;;;5066946;28;19924;-68
2021/06/29 14:22:17;;;;;;;;;;;21.00;99.90;;;;;;5063486;28;20034;-68
2021/06/29 14:24:44;;;;;;;;;;;21.00;99.90;;;;;;5067053;28;19960;-68
2021/06/29 14:27:11;;;;;;;;;;;21.00;99.90;;;;;;5067251;28;20495;-68
2021/06/29 14:29:37;;;;;;;;;;;20.90;99.90;;;;;;5069514;28;20363;-68
2021/06/29 14:32:05;;;;;;;;;;;20.80;99.90;;;;;;5064278;28;20359;-68
2021/06/29 14:34:32;;;;;;;;;;;20.70;99.90;;;;;;5067463;28;19929;-68
2021/06/29 14:36:59;;;;;;;;;;;20.80;99.90;;;;;;5067826;28;19928;-68
2021/06/29 14:39:25;;;;;;;;;;;20.70;99.90;;;;;;5068357;28;20322;-68